Time;durP1;ratioP1;P1;durP2;ratioP2;P2;SDS_P1;SDS_P2;PMS_P1;PMS_P2;Temp;Humidity;BMP_temperature;BMP_pressure;BME280_temperature;BME280_humidity;BME280_pressure;Samples;Min_cycle;Max_cycle;Signal;HPM_P1;HPM_P2
2024/01/02 00:00:07;;;;;;;116.85;45.78;;;;;;;4.42;100.00;98891.22;1619552;88;21086;-72
2024/01/02 00:02:37;;;;;;;117.65;45.55;;;;;;;4.42;100.00;98889.86;1592502;90;21620;-71
2024/01/02 00:05:07;;;;;;;117.30;45.48;;;;;;;4.42;100.00;98889.86;1619824;88;21059;-70
2024/01/02 00:07:35;;;;;;;114.70;44.90;;;;;;;4.42;100.00;98891.73;1592846;89;21551;-72
2024/01/02 00:10:04;;;;;;;118.20;44.33;;;;;;;4.42;100.00;98882.25;1619541;87;21582;-72
2024/01/02 00:12:33;;;;;;;106.22;42.73;;;;;;;4.41;100.00;98877.86;1592801;90;21134;-70
2024/01/02 00:15:02;;;;;;;111.32;42.93;;;;;;;4.37;100.00;98877.41;1619752;87;21078;-71
2024/01/02 00:17:31;;;;;;;106.83;42.05;;;;;;;4.35;100.00;98881.34;1589215;89;21111;-73
2024/01/02 00:19:59;;;;;;;114.03;42.95;;;;;;;4.34;100.00;98878.31;1601564;89;21124;-71
2024/01/02 00:22:28;;;;;;;106.17;42.85;;;;;;;4.31;100.00;98881.42;1575291;91;21132;-71
2024/01/02 00:24:56;;;;;;;108.72;41.45;;;;;;;4.32;100.00;98878.52;1601534;89;21563;-72
2024/01/02 00:27:24;;;;;;;103.65;40.65;;;;;;;4.31;100.00;98878.19;1579369;90;21126;-72
2024/01/02 00:29:53;;;;;;;98.27;39.27;;;;;;;4.29;100.00;98879.42;1575396;91;21127;-72
2024/01/02 00:32:21;;;;;;;103.55;40.38;;;;;;;4.27;100.00;98872.00;1601560;89;21106;-72
2024/01/02 00:34:51;;;;;;;95.07;39.25;;;;;;;4.25;100.00;98870.00;1579407;91;21059;-73
2024/01/02 00:37:19;;;;;;;94.20;39.67;;;;;;;4.23;100.00;98880.20;1601590;89;21548;-72
2024/01/02 00:39:48;;;;;;;86.50;36.50;;;;;;;4.21;100.00;98872.78;1577691;89;21072;-72
2024/01/02 00:42:16;;;;;;;86.32;35.88;;;;;;;4.18;100.00;98876.72;1601634;89;21531;-72
2024/01/02 00:44:46;;;;;;;82.92;36.00;;;;;;;4.20;100.00;98872.45;1601728;89;21060;-70
2024/01/02 00:47:14;;;;;;;80.60;33.60;;;;;;;4.21;100.00;98865.48;1601637;89;21063;-72
2024/01/02 00:49:43;;;;;;;76.50;31.75;;;;;;;4.23;100.00;98870.71;1601633;89;21621;-72
2024/01/02 00:52:11;;;;;;;66.65;27.10;;;;;;;4.24;100.00;98871.03;1601749;89;21207;-71
2024/01/02 00:54:40;;;;;;;58.55;25.68;;;;;;;4.23;100.00;98870.71;1601790;89;21141;-72
2024/01/02 00:57:08;;;;;;;39.40;19.40;;;;;;;4.23;100.00;98865.28;1601647;89;21126;-72
2024/01/02 00:59:36;;;;;;;42.58;23.12;;;;;;;4.24;100.00;98858.83;1601620;89;21127;-72
2024/01/02 01:02:05;;;;;;;59.80;33.18;;;;;;;4.24;100.00;98871.03;1601614;89;21475;-71
2024/01/02 01:04:34;;;;;;;62.25;34.65;;;;;;;4.24;100.00;98854.77;1601821;89;21084;-72
2024/01/02 01:07:02;;;;;;;48.60;27.87;;;;;;;4.26;100.00;98859.48;1601623;89;21599;-72
2024/01/02 01:09:31;;;;;;;46.20;24.30;;;;;;;4.28;100.00;98857.41;1577022;89;21087;-71
2024/01/02 01:11:59;;;;;;;29.77;17.12;;;;;;;4.27;99.90;98863.86;1601622;89;21186;-71
2024/01/02 01:14:28;;;;;;;24.20;13.20;;;;;;;4.27;99.29;98850.31;1601994;89;21063;-71
2024/01/02 01:16:58;;;;;;;26.02;15.70;;;;;;;4.26;99.21;98847.28;1601919;89;21059;-72
2024/01/02 01:19:27;;;;;;;26.40;17.40;;;;;;;4.28;99.16;98845.21;1603569;88;21535;-72
2024/01/02 01:21:55;;;;;;;29.40;19.60;;;;;;;4.29;99.12;98845.53;1603979;88;21095;-71
2024/01/02 01:24:24;;;;;;;26.82;16.17;;;;;;;4.28;98.95;98844.70;1604029;88;21112;-71
2024/01/02 01:26:52;;;;;;;21.97;14.25;;;;;;;4.28;98.74;98843.86;1603900;88;21151;-72
2024/01/02 01:29:21;;;;;;;31.00;16.95;;;;;;;4.29;98.80;98842.82;1603866;88;21087;-72
2024/01/02 01:31:49;;;;;;;25.45;17.70;;;;;;;4.30;98.63;98844.50;1603893;89;21111;-71
2024/01/02 01:34:18;;;;;;;37.95;23.27;;;;;;;4.29;98.34;98844.18;1603959;88;21591;-70
2024/01/02 01:36:46;;;;;;;25.48;17.02;;;;;;;4.29;98.31;98842.82;1604013;89;21111;-72
2024/01/02 01:39:14;;;;;;;23.40;15.05;;;;;;;4.28;98.12;98849.28;1584642;89;21088;-71
2024/01/02 01:41:43;;;;;;;18.25;12.80;;;;;;;4.26;97.97;98844.05;1584667;88;21182;-71
2024/01/02 01:44:11;;;;;;;18.12;11.55;;;;;;;4.25;97.91;98828.82;1604030;89;21083;-71
2024/01/02 01:46:40;;;;;;;15.40;11.10;;;;;;;4.26;97.99;98835.92;1603884;89;21112;-72
2024/01/02 01:49:10;;;;;;;16.15;10.35;;;;;;;4.25;97.79;98822.05;1603803;88;21536;-72
2024/01/02 01:51:41;;;;;;;14.05;8.40;;;;;;;4.25;97.73;98826.63;1603859;89;21539;-71
2024/01/02 01:54:12;;;;;;;11.03;8.08;;;;;;;4.23;97.60;98824.63;1603966;88;21087;-72
2024/01/02 01:56:42;;;;;;;9.75;7.20;;;;;;;4.18;97.33;98825.73;1603858;89;21059;-72
2024/01/02 01:59:12;;;;;;;9.23;6.72;;;;;;;4.16;97.24;98826.44;1603798;89;21416;-70
2024/01/02 02:01:44;;;;;;;9.95;6.78;;;;;;;4.14;97.13;98820.70;1603872;89;21119;-70
2024/01/02 02:04:13;;;;;;;7.87;5.30;;;;;;;4.14;97.11;98819.34;1603806;89;21091;-69
2024/01/02 02:06:41;;;;;;;8.43;5.72;;;;;;;4.12;96.80;98810.58;1604101;88;21111;-70
2024/01/02 02:09:10;;;;;;;8.08;6.35;;;;;;;4.09;96.48;98808.25;1603992;89;21063;-71
2024/01/02 02:11:40;;;;;;;7.83;6.05;;;;;;;4.06;96.31;98807.80;1603877;88;21587;-70
2024/01/02 02:14:09;;;;;;;6.42;5.17;;;;;;;4.05;96.59;98810.20;1604036;88;21067;-70
2024/01/02 02:16:42;;;;;;;6.95;5.70;;;;;;;4.06;96.72;98815.42;1604022;89;21145;-71
2024/01/02 02:19:11;;;;;;;7.05;5.50;;;;;;;4.05;96.29;98813.74;1602483;88;21139;-70
2024/01/02 02:21:39;;;;;;;5.78;4.95;;;;;;;4.02;96.16;98811.42;1601554;88;21075;-70
2024/01/02 02:24:07;;;;;;;7.20;4.92;;;;;;;4.02;96.11;98805.16;1601615;89;21230;-72
2024/01/02 02:26:36;;;;;;;5.80;4.75;;;;;;;4.00;95.90;98806.72;1577439;89;21075;-70
2024/01/02 02:29:04;;;;;;;5.08;4.45;;;;;;;3.99;95.98;98799.62;1601559;88;21101;-72
2024/01/02 02:31:33;;;;;;;6.70;5.33;;;;;;;3.99;95.90;98806.39;1602002;89;21111;-71
2024/01/02 02:34:02;;;;;;;5.85;4.03;;;;;;;4.00;96.09;98805.88;1601875;89;21064;-71
2024/01/02 02:36:31;;;;;;;4.05;3.62;;;;;;;4.02;95.83;98792.97;1601953;89;21063;-70
2024/01/02 02:38:59;;;;;;;4.92;3.80;;;;;;;4.00;95.55;98798.59;1601729;89;21072;-71
2024/01/02 02:41:28;;;;;;;3.98;3.40;;;;;;;4.01;95.52;98786.72;1601637;89;21558;-71
2024/01/02 02:43:57;;;;;;;5.75;4.20;;;;;;;4.01;95.35;98789.42;1601548;89;21175;-70
2024/01/02 02:46:25;;;;;;;5.28;3.80;;;;;;;4.00;95.28;98787.75;1601621;89;21226;-71
2024/01/02 02:48:54;;;;;;;4.55;3.65;;;;;;;4.00;95.09;98785.04;1577438;89;21138;-70
2024/01/02 02:51:22;;;;;;;8.03;4.97;;;;;;;4.00;94.92;98785.55;1601840;88;21095;-68
2024/01/02 02:53:51;;;;;;;6.62;4.75;;;;;;;4.00;94.68;98774.20;1601642;89;21123;-70
2024/01/02 02:56:19;;;;;;;7.65;5.42;;;;;;;3.99;94.46;98780.66;1601654;89;21068;-70
2024/01/02 02:58:48;;;;;;;6.50;4.42;;;;;;;3.98;94.28;98762.72;1601551;89;21127;-72
2024/01/02 03:01:23;;;;;;;7.33;5.00;;;;;;;3.97;93.71;98769.17;1601750;89;21091;-70
2024/01/02 03:03:52;;;;;;;15.75;10.82;;;;;;;3.98;93.73;98765.43;1601609;89;21512;-71
2024/01/02 03:06:20;;;;;;;17.80;10.30;;;;;;;3.97;93.58;98774.59;1601654;89;21131;-70
2024/01/02 03:08:48;;;;;;;13.35;9.70;;;;;;;3.96;93.46;98778.34;1601575;89;21076;-70
2024/01/02 03:11:17;;;;;;;13.45;8.83;;;;;;;3.93;93.05;98775.17;1601601;89;21110;-71
2024/01/02 03:13:45;;;;;;;11.60;8.13;;;;;;;3.91;92.85;98768.59;1601661;89;21202;-71
2024/01/02 03:16:15;;;;;;;10.18;6.70;;;;;;;3.91;93.07;98764.53;1601909;89;21087;-71
2024/01/02 03:18:43;;;;;;;8.80;6.10;;;;;;;3.91;92.88;98770.47;1602399;86;21163;-71
2024/01/02 03:21:12;;;;;;;12.43;8.50;;;;;;;3.88;92.45;98768.95;1603743;88;21072;-70
2024/01/02 03:23:40;;;;;;;11.80;8.35;;;;;;;3.87;92.45;98769.98;1603922;88;21075;-72
2024/01/02 03:26:12;;;;;;;5.33;4.22;;;;;;;3.87;92.51;98774.57;1604057;89;21064;-69
2024/01/02 03:28:41;;;;;;;3.80;2.75;;;;;;;3.85;92.44;98766.64;1603910;88;21104;-70
2024/01/02 03:31:10;;;;;;;8.53;5.35;;;;;;;3.85;92.51;98771.22;1603745;88;21555;-71
2024/01/02 03:33:38;;;;;;;6.20;3.98;;;;;;;3.85;92.40;98769.34;1564894;89;21527;-71
2024/01/02 03:36:14;;;;;;;4.00;3.00;;;;;;;3.83;92.34;98766.00;1603817;89;21581;-69
2024/01/02 03:38:43;;;;;;;6.30;3.15;;;;;;;3.85;92.36;98775.28;1601090;89;21103;-70
2024/01/02 03:41:12;;;;;;;5.95;4.22;;;;;;;3.81;92.24;98766.19;1603811;89;21084;-70
2024/01/02 03:43:41;;;;;;;5.85;4.17;;;;;;;3.80;92.30;98772.64;1604007;89;21107;-69
2024/01/02 03:46:10;;;;;;;6.25;3.75;;;;;;;3.81;92.19;98761.28;1603767;88;21119;-70
2024/01/02 03:48:39;;;;;;;6.17;3.95;;;;;;;3.79;92.02;98774.19;1604026;89;21088;-71
2024/01/02 03:51:07;;;;;;;6.58;4.00;;;;;;;3.77;91.73;98755.42;1603896;89;21087;-70
2024/01/02 03:53:36;;;;;;;4.72;2.58;;;;;;;3.76;91.95;98760.52;1603865;89;21163;-70
2024/01/02 03:56:05;;;;;;;6.15;3.50;;;;;;;3.75;91.74;98762.06;1603792;89;21517;-70
2024/01/02 03:58:33;;;;;;;4.70;3.25;;;;;;;3.72;91.66;98772.77;1603832;89;21099;-72
2024/01/02 04:01:02;;;;;;;4.20;2.65;;;;;;;3.69;91.29;98755.56;1603851;88;21154;-72
2024/01/02 04:03:30;;;;;;;3.10;2.50;;;;;;;3.68;91.56;98760.65;1603872;88;21127;-71
2024/01/02 04:06:00;;;;;;;3.33;2.67;;;;;;;3.67;91.50;98761.68;1603833;88;21581;-71
2024/01/02 04:08:29;;;;;;;4.00;2.80;;;;;;;3.65;91.60;98770.52;1603906;89;21079;-72
2024/01/02 04:10:57;;;;;;;4.20;2.30;;;;;;;3.64;91.67;98766.65;1603896;88;21519;-71
2024/01/02 04:13:26;;;;;;;4.33;2.67;;;;;;;3.63;91.84;98773.09;1603905;88;21051;-71
2024/01/02 04:15:54;;;;;;;1.92;1.30;;;;;;;3.62;91.95;98770.06;1603928;89;21542;-71
2024/01/02 04:18:23;;;;;;;2.40;1.75;;;;;;;3.61;91.85;98766.52;1603957;88;21118;-71
2024/01/02 04:20:52;;;;;;;3.80;2.80;;;;;;;3.60;91.92;98778.89;1603847;89;21124;-71
2024/01/02 04:23:20;;;;;;;2.70;1.80;;;;;;;3.58;92.05;98775.55;1584757;89;21112;-70
2024/01/02 04:25:49;;;;;;;3.22;2.12;;;;;;;3.57;92.07;98773.35;1603874;88;21112;-71
2024/01/02 04:28:17;;;;;;;2.30;1.90;;;;;;;3.54;92.00;98773.73;1603909;89;21111;-71
2024/01/02 04:30:45;;;;;;;5.15;1.92;;;;;;;3.53;91.99;98777.99;1604071;89;21092;-70
2024/01/02 04:33:14;;;;;;;2.52;1.70;;;;;;;3.50;91.73;98788.17;1603933;89;21515;-72
2024/01/02 04:35:42;;;;;;;3.47;2.22;;;;;;;3.48;91.59;98794.81;1603899;89;21144;-71
2024/01/02 04:38:11;;;;;;;3.12;2.15;;;;;;;3.47;91.43;98793.97;1603936;89;21104;-72
2024/01/02 04:40:40;;;;;;;5.35;3.25;;;;;;;3.44;91.42;98792.16;1603878;89;21075;-71
2024/01/02 04:43:08;;;;;;;3.08;1.85;;;;;;;3.44;91.20;98801.64;1603942;88;21491;-73
2024/01/02 04:45:37;;;;;;;3.50;2.50;;;;;;;3.42;91.11;98792.36;1603904;88;21543;-72
2024/01/02 04:48:06;;;;;;;7.95;4.30;;;;;;;3.40;91.04;98815.23;1604014;89;21130;-71
2024/01/02 04:50:35;;;;;;;2.47;1.90;;;;;;;3.38;91.00;98799.19;1603901;89;21083;-71
2024/01/02 04:53:03;;;;;;;2.12;1.70;;;;;;;3.35;91.07;98800.92;1603809;88;21159;-71
2024/01/02 04:55:32;;;;;;;4.08;2.42;;;;;;;3.31;90.83;98807.74;1603990;89;21056;-71
2024/01/02 04:58:02;;;;;;;4.58;3.25;;;;;;;3.29;91.04;98811.67;1603901;89;21071;-71
2024/01/02 05:00:31;;;;;;;2.37;1.70;;;;;;;3.28;91.39;98820.30;1604122;88;21118;-71
2024/01/02 05:02:59;;;;;;;2.72;1.77;;;;;;;3.26;91.38;98827.77;1603849;89;21143;-71
2024/01/02 05:05:29;;;;;;;2.67;1.70;;;;;;;3.23;91.51;98840.30;1603829;89;21083;-72
2024/01/02 05:07:59;;;;;;;2.95;2.00;;;;;;;3.20;91.42;98839.33;1603883;89;21536;-70
2024/01/02 05:10:28;;;;;;;2.60;1.90;;;;;;;3.15;91.67;98844.47;1603885;89;21051;-70
2024/01/02 05:12:57;;;;;;;2.77;1.85;;;;;;;3.10;91.61;98841.48;1603810;88;21151;-71
2024/01/02 05:15:25;;;;;;;3.08;2.37;;;;;;;3.08;92.05;98844.89;1604106;89;21149;-70
2024/01/02 05:17:54;;;;;;;2.87;1.90;;;;;;;3.08;92.12;98848.44;1604114;89;21132;-72
2024/01/02 05:20:23;;;;;;;3.90;2.35;;;;;;;3.07;92.09;98848.63;1602433;86;21080;-72
2024/01/02 05:22:51;;;;;;;2.75;2.20;;;;;;;3.07;92.01;98849.98;1601754;89;21193;-71
2024/01/02 05:25:21;;;;;;;3.40;2.25;;;;;;;3.04;92.01;98854.41;1599468;89;21091;-72
2024/01/02 05:27:49;;;;;;;3.27;2.30;;;;;;;3.03;92.14;98858.14;1601677;89;21095;-72
2024/01/02 05:30:18;;;;;;;3.15;2.33;;;;;;;3.02;92.02;98862.72;1601594;89;21087;-71
2024/01/02 05:32:47;;;;;;;5.20;3.90;;;;;;;2.98;92.02;98860.57;1601613;89;21083;-71
2024/01/02 05:35:16;;;;;;;6.22;4.42;;;;;;;2.92;92.23;98859.45;1601756;89;21123;-71
2024/01/02 05:37:44;;;;;;;9.88;7.83;;;;;;;2.91;92.30;98872.65;1601749;89;21056;-71
2024/01/02 05:40:13;;;;;;;7.70;5.97;;;;;;;2.91;92.51;98873.16;1577515;89;21105;-70
2024/01/02 05:42:41;;;;;;;11.73;7.53;;;;;;;2.91;92.28;98882.11;1601568;89;21080;-71
2024/01/02 05:45:10;;;;;;;6.95;5.70;;;;;;;2.91;92.48;98881.28;1601484;89;21103;-72
2024/01/02 05:47:38;;;;;;;6.95;5.67;;;;;;;2.90;92.54;98883.66;1601572;89;21173;-71
2024/01/02 05:50:08;;;;;;;7.15;5.47;;;;;;;2.88;92.67;98885.70;1601766;89;21048;-72
2024/01/02 05:52:38;;;;;;;10.58;8.28;;;;;;;2.85;92.81;98891.81;1601592;89;21095;-72
2024/01/02 05:55:08;;;;;;;8.18;6.40;;;;;;;2.84;92.98;98898.25;1601619;89;21581;-72
2024/01/02 05:57:36;;;;;;;13.38;10.03;;;;;;;2.84;93.01;98898.25;1601626;89;21607;-72
2024/01/02 06:00:07;;;;;;;11.97;8.80;;;;;;;2.82;93.12;98897.59;1601692;89;21124;-72
2024/01/02 06:02:36;;;;;;;13.78;9.90;;;;;;;2.81;93.28;98902.67;1601603;89;21527;-71
2024/01/02 06:05:06;;;;;;;12.50;9.00;;;;;;;2.79;93.29;98909.30;1577516;89;21119;-71
2024/01/02 06:07:34;;;;;;;8.45;5.80;;;;;;;2.79;93.40;98899.31;1601761;89;21092;-72
2024/01/02 06:10:03;;;;;;;5.83;4.25;;;;;;;2.79;93.35;98904.72;1601604;89;21119;-71
2024/01/02 06:12:32;;;;;;;4.78;3.20;;;;;;;2.81;93.34;98914.00;1601669;89;21104;-70
2024/01/02 06:15:00;;;;;;;4.78;3.35;;;;;;;2.82;92.95;98914.33;1601602;89;21234;-71
2024/01/02 06:17:29;;;;;;;3.67;2.35;;;;;;;2.79;92.86;98914.70;1601797;88;21118;-71
2024/01/02 06:19:57;;;;;;;4.92;2.25;;;;;;;2.78;92.59;98925.19;1602474;87;21132;-72
2024/01/02 06:22:26;;;;;;;2.47;1.60;;;;;;;2.80;92.60;98936.66;1603789;89;21504;-72
2024/01/02 06:24:54;;;;;;;2.67;2.02;;;;;;;2.81;92.36;98936.48;1584428;89;21522;-72
2024/01/02 06:27:22;;;;;;;2.27;1.75;;;;;;;2.83;92.51;98942.55;1584669;89;21071;-70
2024/01/02 06:29:51;;;;;;;2.08;1.40;;;;;;;2.86;92.21;98940.83;1584603;89;21139;-71
2024/01/02 06:32:19;;;;;;;3.35;1.55;;;;;;;2.84;91.48;98930.70;1603919;89;21088;-71
2024/01/02 06:34:48;;;;;;;2.92;1.80;;;;;;;2.82;91.02;98949.49;1603858;89;21079;-70
2024/01/02 06:37:17;;;;;;;2.00;1.20;;;;;;;2.81;91.15;98947.30;1603898;88;21059;-72
2024/01/02 06:39:45;;;;;;;1.47;0.93;;;;;;;2.83;90.66;98945.77;1604055;88;21113;-71
2024/01/02 06:42:14;;;;;;;6.45;3.10;;;;;;;2.79;89.96;98956.11;1603855;88;21122;-71
2024/01/02 06:44:43;;;;;;;11.95;7.33;;;;;;;2.78;89.90;98957.64;1584792;89;21087;-71
2024/01/02 06:47:11;;;;;;;11.05;6.72;;;;;;;2.78;89.73;98953.08;1603835;88;21147;-71
2024/01/02 06:49:40;;;;;;;3.98;2.52;;;;;;;2.78;89.57;98970.66;1603821;88;21139;-71
2024/01/02 06:52:08;;;;;;;6.15;3.08;;;;;;;2.76;89.05;98971.35;1603951;88;21095;-71
2024/01/02 06:54:37;;;;;;;6.37;2.77;;;;;;;2.75;88.63;98969.67;1603999;88;21138;-71
2024/01/02 06:57:05;;;;;;;3.40;1.90;;;;;;;2.73;87.77;98974.42;1603810;89;21091;-71
2024/01/02 06:59:33;;;;;;;3.42;1.77;;;;;;;2.71;87.72;98988.63;1603983;89;21191;-71
2024/01/02 07:02:02;;;;;;;2.40;1.22;;;;;;;2.71;87.25;98994.04;1603892;89;21095;-72
2024/01/02 07:04:31;;;;;;;3.65;2.58;;;;;;;2.69;86.62;98996.09;1603911;89;21075;-72
2024/01/02 07:06:59;;;;;;;2.83;2.05;;;;;;;2.69;87.09;99004.20;1584469;89;21219;-70
2024/01/02 07:09:27;;;;;;;2.27;1.40;;;;;;;2.70;87.17;99005.05;1603984;88;21412;-71
2024/01/02 07:11:56;;;;;;;7.35;4.08;;;;;;;2.67;87.07;99013.00;1584551;89;21535;-73
2024/01/02 07:14:24;;;;;;;7.80;4.53;;;;;;;2.65;87.37;99023.16;1603964;88;21119;-71
2024/01/02 07:16:52;;;;;;;7.70;4.90;;;;;;;2.66;87.73;99014.03;1603951;89;21503;-71
2024/01/02 07:19:21;;;;;;;32.48;18.10;;;;;;;2.65;87.91;99024.52;1604489;87;21119;-71
2024/01/02 07:21:51;;;;;;;16.70;9.73;;;;;;;2.67;88.12;99026.52;1631286;88;21015;-70
2024/01/02 07:24:19;;;;;;;7.05;4.37;;;;;;;2.69;88.23;99034.45;1631024;88;21083;-71
2024/01/02 07:26:48;;;;;;;4.42;2.87;;;;;;;2.66;88.28;99038.88;1607391;88;21030;-74
2024/01/02 07:29:18;;;;;;;3.05;1.90;;;;;;;2.61;88.59;99048.87;1631115;88;21070;-72
2024/01/02 07:31:46;;;;;;;3.90;1.22;;;;;;;2.55;88.74;99047.70;1631192;87;21482;-72
2024/01/02 07:34:15;;;;;;;2.83;1.75;;;;;;;2.49;88.60;99061.09;1631327;88;21023;-71
2024/01/02 07:36:43;;;;;;;2.15;1.40;;;;;;;2.37;88.60;99062.02;1631060;87;21538;-71
2024/01/02 07:39:11;;;;;;;2.12;1.22;;;;;;;2.28;89.12;99074.40;1650510;86;21047;-71
2024/01/02 07:41:40;;;;;;;3.90;1.92;;;;;;;2.19;89.33;99068.20;1631110;88;21082;-71
2024/01/02 07:44:09;;;;;;;6.08;3.00;;;;;;;2.13;89.76;99069.75;1607556;88;21506;-73
2024/01/02 07:46:37;;;;;;;8.53;5.40;;;;;;;2.10;90.10;99078.72;1607447;88;21039;-72
2024/01/02 07:49:06;;;;;;;18.20;10.85;;;;;;;2.05;90.44;99067.09;1631140;87;21091;-71
2024/01/02 07:51:34;;;;;;;25.43;15.03;;;;;;;2.05;90.81;99078.40;1631099;88;21071;-72
2024/01/02 07:54:03;;;;;;;23.73;13.98;;;;;;;2.04;90.96;99091.58;1631148;88;21003;-72
2024/01/02 07:56:32;;;;;;;14.98;8.40;;;;;;;2.05;91.24;99099.50;1631233;88;21039;-72
2024/01/02 07:59:02;;;;;;;6.47;4.35;;;;;;;2.05;91.34;99101.36;1631292;87;21070;-71
2024/01/02 08:01:31;;;;;;;11.43;6.30;;;;;;;2.00;91.27;99112.69;1631307;88;21027;-70
2024/01/02 08:04:00;;;;;;;10.50;6.47;;;;;;;1.95;91.25;99115.55;1631151;88;21086;-71
2024/01/02 08:06:30;;;;;;;12.80;6.87;;;;;;;1.89;91.11;99125.19;1631171;88;21035;-72
2024/01/02 08:08:59;;;;;;;9.25;5.50;;;;;;;1.87;90.81;99128.57;1630983;88;21078;-71
2024/01/02 08:11:27;;;;;;;14.53;7.53;;;;;;;1.86;90.69;99125.53;1631130;88;21112;-71
2024/01/02 08:13:56;;;;;;;7.72;4.50;;;;;;;1.84;90.01;99137.86;1631024;88;21519;-71
2024/01/02 08:16:25;;;;;;;12.35;7.05;;;;;;;1.81;88.63;99148.16;1631073;87;21063;-71
2024/01/02 08:18:53;;;;;;;12.63;6.47;;;;;;;1.79;88.63;99157.80;1631021;87;21098;-69
2024/01/02 08:21:22;;;;;;;18.35;9.63;;;;;;;1.81;88.38;99155.76;1613323;88;21110;-72
2024/01/02 08:23:50;;;;;;;15.48;8.38;;;;;;;1.80;87.89;99167.58;1612455;89;21078;-70
2024/01/02 08:26:19;;;;;;;13.45;7.03;;;;;;;1.82;87.81;99172.30;1612346;89;21099;-72
2024/01/02 08:28:48;;;;;;;9.85;5.35;;;;;;;1.83;87.48;99182.59;1612483;89;21096;-71
2024/01/02 08:31:16;;;;;;;6.65;3.55;;;;;;;1.80;87.54;99192.39;1612394;89;21162;-70
2024/01/02 08:33:44;;;;;;;9.85;5.20;;;;;;;1.73;87.03;99192.73;1585963;88;21090;-72
2024/01/02 08:36:13;;;;;;;9.25;4.97;;;;;;;1.61;86.96;99196.30;1586924;89;21098;-72
2024/01/02 08:38:41;;;;;;;9.65;5.08;;;;;;;1.54;87.15;99184.48;1612214;89;21479;-70
2024/01/02 08:41:10;;;;;;;7.72;4.15;;;;;;;1.50;87.38;99197.48;1612242;89;21114;-71
2024/01/02 08:43:38;;;;;;;9.60;4.85;;;;;;;1.46;87.36;99196.13;1586115;89;21083;-72
2024/01/02 08:46:07;;;;;;;7.03;4.33;;;;;;;1.43;86.89;99206.42;1612423;89;21078;-71
2024/01/02 08:48:36;;;;;;;5.65;4.05;;;;;;;1.41;86.62;99201.20;1586249;89;21150;-70
2024/01/02 08:51:05;;;;;;;5.92;3.52;;;;;;;1.38;85.23;99205.58;1612244;88;21090;-73
2024/01/02 08:53:33;;;;;;;7.92;4.45;;;;;;;1.33;83.63;99217.89;1612513;88;21095;-71
2024/01/02 08:56:02;;;;;;;7.97;4.20;;;;;;;1.31;83.13;99219.91;1612380;89;21573;-72
2024/01/02 08:58:31;;;;;;;6.58;3.75;;;;;;;1.28;82.89;99221.90;1612568;88;21115;-73
2024/01/02 09:00:59;;;;;;;6.65;3.47;;;;;;;1.26;82.19;99231.17;1612440;87;21123;-71
2024/01/02 09:03:30;;;;;;;6.22;3.92;;;;;;;1.23;81.93;99229.66;1586501;89;21079;-73
2024/01/02 09:05:58;;;;;;;4.87;3.17;;;;;;;1.22;81.67;99233.36;1612585;89;21115;-73
2024/01/02 09:08:27;;;;;;;5.35;3.08;;;;;;;1.21;81.11;99235.72;1612428;89;21067;-73
2024/01/02 09:10:57;;;;;;;6.85;3.92;;;;;;;1.14;79.59;99254.09;1612284;88;21119;-72
2024/01/02 09:13:26;;;;;;;7.05;4.10;;;;;;;1.07;80.17;99262.50;1612337;88;21551;-74
2024/01/02 09:15:54;;;;;;;6.70;4.05;;;;;;;1.06;80.44;99260.31;1612458;89;21125;-71
2024/01/02 09:18:23;;;;;;;5.58;3.33;;;;;;;1.05;80.33;99259.13;1612580;88;21072;-73
2024/01/02 09:20:51;;;;;;;6.00;3.55;;;;;;;1.03;80.17;99280.02;1609417;88;21132;-72
2024/01/02 09:23:19;;;;;;;4.05;3.02;;;;;;;0.95;79.24;99265.50;1603850;89;21067;-71
2024/01/02 09:25:48;;;;;;;3.90;2.27;;;;;;;0.89;78.61;99275.59;1604041;88;21154;-72
2024/01/02 09:28:17;;;;;;;4.50;3.00;;;;;;;0.77;76.92;99274.71;1603964;89;21159;-73
2024/01/02 09:30:48;;;;;;;6.22;3.62;;;;;;;0.63;77.39;99287.77;1604036;88;21091;-71
2024/01/02 09:33:17;;;;;;;6.28;3.20;;;;;;;0.60;77.77;99280.51;1603872;89;21095;-72
2024/01/02 09:35:46;;;;;;;6.40;3.98;;;;;;;0.60;76.53;99299.37;1604143;88;21137;-73
2024/01/02 09:38:15;;;;;;;5.65;3.30;;;;;;;0.57;76.68;99297.00;1604064;88;21095;-73
2024/01/02 09:41:29;;;;;;;6.55;3.70;;;;;;;0.55;76.61;99299.86;1603874;88;21162;-73
2024/01/02 09:44:19;;;;;;;4.45;3.00;;;;;;;0.53;76.05;99308.61;1603894;89;21161;-71
2024/01/02 09:47:12;;;;;;;6.05;3.35;;;;;;;0.41;75.01;99303.16;1603920;88;21056;-73
2024/01/02 09:50:07;;;;;;;8.50;3.42;;;;;;;0.33;75.12;99291.48;1603946;89;21103;-71
2024/01/02 09:53:04;;;;;;;6.55;3.65;;;;;;;0.28;75.25;99299.55;1603744;89;21135;-71
2024/01/02 09:56:14;;;;;;;7.58;3.67;;;;;;;0.30;75.60;99298.88;1603849;89;21107;-69
2024/01/02 09:59:18;;;;;;;8.50;4.25;;;;;;;0.33;75.78;99299.56;1603817;88;21087;-72
2024/01/02 10:02:33;;;;;;;8.98;4.50;;;;;;;0.29;75.64;99298.54;1598587;89;21071;-71
2024/01/02 10:05:29;;;;;;;6.80;3.37;;;;;;;0.28;76.07;99301.39;1603940;88;21162;-73
2024/01/02 10:08:28;;;;;;;4.70;2.62;;;;;;;0.29;75.99;99297.19;1604054;89;21106;-71
2024/01/02 10:11:33;;;;;;;6.58;3.30;;;;;;;0.26;74.86;99284.05;1603800;88;21051;-71
2024/01/02 10:14:29;;;;;;;6.53;3.92;;;;;;;0.20;75.22;99295.45;1603959;89;21134;-73
2024/01/02 10:17:17;;;;;;;6.85;3.85;;;;;;;0.18;75.48;99285.34;1604146;89;21491;-71
2024/01/02 10:20:07;;;;;;;;;;;;;;;0.21;75.78;99293.61;1606354;89;21123;-73
2024/01/02 10:22:44;;;;;;;8.40;4.50;;;;;;;0.23;75.50;99287.56;1602820;87;20320;-73
2024/01/02 10:25:18;;;;;;;9.33;4.20;;;;;;;0.18;75.95;99281.30;1573773;89;21143;-71
2024/01/02 10:28:17;;;;;;;7.67;3.87;;;;;;;0.22;76.33;99282.67;1601570;89;21125;-72
2024/01/02 10:31:11;;;;;;;6.05;3.45;;;;;;;0.23;76.05;99283.02;1601798;89;21487;-73
2024/01/02 10:33:55;;;;;;;8.70;4.53;;;;;;;0.22;75.75;99273.75;1601582;89;21099;-73
2024/01/02 10:36:25;;;;;;;9.75;3.98;;;;;;;0.17;76.25;99277.42;1601465;89;21127;-71
2024/01/02 10:39:33;;;;;;;9.83;3.62;;;;;;;0.15;76.28;99279.43;1601499;89;21124;-73
2024/01/02 10:42:07;;;;;;;8.25;4.15;;;;;;;0.14;76.45;99285.31;1600918;89;21083;-73
2024/01/02 10:44:42;;;;;;;8.15;4.30;;;;;;;0.14;76.73;99279.09;1577529;89;21095;-72
2024/01/02 10:47:25;;;;;;;8.33;3.47;;;;;;;0.16;76.61;99282.47;1601546;89;21190;-73
2024/01/02 10:49:59;;;;;;;10.60;4.17;;;;;;;0.12;76.27;99280.59;1601323;89;21586;-74
2024/01/02 10:53:01;;;;;;;9.55;3.90;;;;;;;0.13;76.73;99276.05;1601522;89;21091;-74
2024/01/02 10:55:35;;;;;;;13.05;4.33;;;;;;;0.19;77.17;99278.95;1601584;89;21100;-72
2024/01/02 10:58:23;;;;;;;6.65;3.33;;;;;;;0.22;77.16;99279.14;1600379;89;21606;-73
2024/01/02 11:01:09;;;;;;;11.68;4.47;;;;;;;0.22;76.81;99269.71;1601701;89;21532;-70
2024/01/02 11:04:08;;;;;;;11.57;4.92;;;;;;;0.19;76.77;99287.03;1601574;89;21553;-73
2024/01/02 11:06:50;;;;;;;12.13;4.50;;;;;;;0.20;77.25;99283.34;1571929;89;21086;-73
2024/01/02 11:09:29;;;;;;;7.15;3.90;;;;;;;0.23;77.38;99293.79;1577875;89;21096;-72
2024/01/02 11:11:58;;;;;;;11.33;3.85;;;;;;;0.22;76.84;99304.22;1600816;89;21144;-73
2024/01/02 11:14:28;;;;;;;8.60;3.22;;;;;;;0.18;76.62;99305.55;1575236;89;21107;-73
2024/01/02 11:16:57;;;;;;;6.85;3.62;;;;;;;0.14;76.17;99305.52;1601579;89;21186;-73
2024/01/02 11:19:34;;;;;;;5.40;2.95;;;;;;;0.12;75.88;99311.56;1601932;89;21127;-73
2024/01/02 11:22:10;;;;;;;10.40;4.58;;;;;;;0.09;75.54;99310.53;1601588;89;21075;-73
2024/01/02 11:24:49;;;;;;;11.20;4.40;;;;;;;0.06;75.24;99303.27;1601752;86;21151;-72
2024/01/02 11:27:21;;;;;;;13.65;5.05;;;;;;;0.05;75.33;99304.27;1601734;89;21087;-72
2024/01/02 11:29:49;;;;;;;8.15;3.95;;;;;;;0.04;74.72;99311.50;1601597;89;21076;-72
2024/01/02 11:32:18;;;;;;;9.53;4.37;;;;;;;0.03;74.58;99318.39;1577354;89;21163;-74
2024/01/02 11:35:05;;;;;;;8.05;4.33;;;;;;;0.01;73.85;99308.28;1573175;89;21131;-73
2024/01/02 11:37:37;;;;;;;8.28;3.85;;;;;;;-0.02;73.43;99314.80;1601659;89;21099;-73
2024/01/02 11:40:22;;;;;;;7.60;4.00;;;;;;;-0.07;72.94;99309.88;1577995;89;21126;-73
2024/01/02 11:43:01;;;;;;;8.38;3.60;;;;;;;-0.11;72.78;99327.84;1601788;89;21071;-72
2024/01/02 11:45:34;;;;;;;10.40;4.10;;;;;;;-0.15;72.72;99330.51;1601372;89;21056;-72
2024/01/02 11:48:31;;;;;;;8.73;3.25;;;;;;;-0.19;73.01;99333.16;1601766;89;21102;-71
2024/01/02 11:51:18;;;;;;;5.17;3.10;;;;;;;-0.19;72.73;99338.55;1601724;89;21788;-72
2024/01/02 11:54:09;;;;;;;6.28;2.80;;;;;;;-0.28;72.09;99343.52;1599955;89;21076;-72
2024/01/02 11:56:38;;;;;;;5.87;3.00;;;;;;;-0.35;71.77;99350.02;1601718;89;21100;-72